createdAt,value
2022-07-30T00:00:26.189Z,15.07
2022-07-30T00:01:28.891Z,15.04
2022-07-30T00:02:31.530Z,15.04
2022-07-30T00:03:34.297Z,15.05
2022-07-30T00:04:37.169Z,15.05
2022-07-30T00:05:39.846Z,15.04
2022-07-30T00:06:42.813Z,15.02
2022-07-30T00:07:45.387Z,15.03
2022-07-30T00:08:48.049Z,15.02
2022-07-30T00:09:50.546Z,15.01
2022-07-30T00:10:53.493Z,15.00
2022-07-30T00:11:56.068Z,15.00
2022-07-30T00:12:58.687Z,14.99
2022-07-30T00:14:01.350Z,14.98
2022-07-30T00:15:03.883Z,14.97
2022-07-30T00:16:06.838Z,14.97
2022-07-30T00:17:09.530Z,14.97
2022-07-30T00:18:12.129Z,14.95
2022-07-30T00:19:16.071Z,14.94
2022-07-30T00:20:19.381Z,14.93
2022-07-30T00:21:35.745Z,14.93
2022-07-30T00:22:28.183Z,14.91
2022-07-30T00:23:31.048Z,14.89
2022-07-30T00:24:33.614Z,14.87
2022-07-30T00:25:36.179Z,14.86
2022-07-30T00:26:39.262Z,14.83
2022-07-30T00:27:41.928Z,14.80
2022-07-30T00:28:44.453Z,14.78
2022-07-30T00:29:47.063Z,14.75
2022-07-30T00:30:54.933Z,14.74
2022-07-30T00:31:54.556Z,14.73
2022-07-30T00:32:57.182Z,14.72
2022-07-30T00:33:59.782Z,14.70
2022-07-30T00:35:02.353Z,14.67
2022-07-30T00:36:05.258Z,14.67
2022-07-30T00:37:07.895Z,14.65
2022-07-30T00:38:10.463Z,14.65
2022-07-30T00:39:13.137Z,14.66
2022-07-30T00:40:16.636Z,14.65
2022-07-30T00:41:19.495Z,14.65
2022-07-30T00:42:22.272Z,14.65
2022-07-30T00:43:24.936Z,14.64
2022-07-30T00:44:27.466Z,14.65
2022-07-30T00:45:30.071Z,14.64
2022-07-30T00:46:33.870Z,14.64
2022-07-30T00:47:36.435Z,14.63
2022-07-30T00:48:39.167Z,14.60
2022-07-30T00:49:44.368Z,14.58
2022-07-30T00:50:46.755Z,14.57
2022-07-30T00:51:51.209Z,14.57
2022-07-30T00:52:53.772Z,14.56
2022-07-30T00:53:56.339Z,14.55
2022-07-30T00:54:59.069Z,14.53
2022-07-30T00:56:01.699Z,14.52
2022-07-30T00:57:04.246Z,14.52
2022-07-30T00:58:06.843Z,14.51
2022-07-30T00:59:09.378Z,14.51
2022-07-30T01:00:12.419Z,14.49
2022-07-30T01:01:15.528Z,14.50
2022-07-30T01:02:18.316Z,14.46
2022-07-30T01:03:21.424Z,14.45
2022-07-30T01:04:23.959Z,14.41
2022-07-30T01:05:26.623Z,14.38
2022-07-30T01:06:29.703Z,14.37
2022-07-30T01:07:32.226Z,14.37
2022-07-30T01:08:34.837Z,14.34
2022-07-30T01:09:37.386Z,14.33
2022-07-30T01:10:40.381Z,14.33
2022-07-30T01:11:42.944Z,14.30
2022-07-30T01:12:45.618Z,14.30
2022-07-30T01:13:48.355Z,14.29
2022-07-30T01:14:51.060Z,14.28
2022-07-30T01:15:53.725Z,14.27
2022-07-30T01:16:56.808Z,14.26
2022-07-30T01:17:59.698Z,14.26
2022-07-30T01:19:02.243Z,14.24
2022-07-30T01:20:05.027Z,14.23
2022-07-30T01:21:07.685Z,14.23
2022-07-30T01:22:10.666Z,14.22
2022-07-30T01:23:13.235Z,14.20
2022-07-30T01:24:15.939Z,14.21
2022-07-30T01:25:18.565Z,14.19
2022-07-30T01:26:22.282Z,14.17
2022-07-30T01:27:24.928Z,14.17
2022-07-30T01:28:27.560Z,14.16
2022-07-30T01:29:30.303Z,14.14
2022-07-30T01:30:32.938Z,14.13
2022-07-30T01:31:37.384Z,14.11
2022-07-30T01:32:40.116Z,14.09
2022-07-30T01:33:42.688Z,14.08
2022-07-30T01:34:45.251Z,14.08
2022-07-30T01:35:47.845Z,14.07
2022-07-30T01:36:51.134Z,14.05
2022-07-30T01:37:53.789Z,14.04
2022-07-30T01:38:56.440Z,14.02
2022-07-30T01:39:59.007Z,14.01
2022-07-30T01:41:01.779Z,13.98
2022-07-30T01:42:05.063Z,13.97
2022-07-30T01:43:08.157Z,13.96
2022-07-30T01:44:10.912Z,13.96
2022-07-30T01:45:13.480Z,13.96
2022-07-30T01:46:17.915Z,13.96
2022-07-30T01:47:20.607Z,13.97
2022-07-30T01:48:23.092Z,13.97
2022-07-30T01:49:26.143Z,13.93
2022-07-30T01:50:29.490Z,13.92
2022-07-30T01:51:37.326Z,13.91
2022-07-30T01:52:36.570Z,13.90
2022-07-30T01:53:39.135Z,13.90
2022-07-30T01:54:41.706Z,13.89
2022-07-30T01:55:44.388Z,13.90
2022-07-30T01:56:47.353Z,13.89
2022-07-30T01:57:50.020Z,13.89
2022-07-30T01:58:52.684Z,13.89
2022-07-30T01:59:56.276Z,13.89
2022-07-30T02:00:59.324Z,13.90
2022-07-30T02:02:01.934Z,13.89
2022-07-30T02:03:04.898Z,13.89
2022-07-30T02:04:07.466Z,13.90
2022-07-30T02:05:09.988Z,13.90
2022-07-30T02:06:13.484Z,13.91
2022-07-30T02:07:16.498Z,13.93
2022-07-30T02:08:19.168Z,13.94
2022-07-30T02:09:21.731Z,13.96
2022-07-30T02:10:24.810Z,13.96
2022-07-30T02:11:27.379Z,13.98
2022-07-30T02:12:31.747Z,14.01
2022-07-30T02:13:34.356Z,14.08
2022-07-30T02:14:36.928Z,14.16
2022-07-30T02:15:39.552Z,14.26
2022-07-30T02:16:42.701Z,14.43
2022-07-30T02:17:45.652Z,14.63
2022-07-30T02:18:49.529Z,14.84
2022-07-30T02:19:52.930Z,15.06
2022-07-30T02:20:56.832Z,15.27
2022-07-30T02:21:59.503Z,15.52
2022-07-30T02:23:03.723Z,15.76
2022-07-30T02:24:06.575Z,16.01
2022-07-30T02:25:09.149Z,16.19
2022-07-30T02:26:13.556Z,16.30
2022-07-30T02:27:16.123Z,16.47
2022-07-30T02:28:18.688Z,16.72
2022-07-30T02:29:21.357Z,17.03
2022-07-30T02:30:24.441Z,17.27
2022-07-30T02:31:27.130Z,17.50
2022-07-30T02:32:30.185Z,17.68
2022-07-30T02:33:32.814Z,17.76
2022-07-30T02:34:35.421Z,17.88
2022-07-30T02:35:37.988Z,18.10
2022-07-30T02:36:40.718Z,18.40
2022-07-30T02:37:44.486Z,18.63
2022-07-30T02:38:47.335Z,18.89
2022-07-30T02:39:50.000Z,19.15
2022-07-30T02:40:52.940Z,19.36
2022-07-30T02:41:55.906Z,19.58
2022-07-30T02:42:58.829Z,19.82
2022-07-30T02:44:02.235Z,20.11
2022-07-30T02:45:05.193Z,20.43
2022-07-30T02:46:08.475Z,20.73
2022-07-30T02:47:11.162Z,20.99
2022-07-30T02:48:35.068Z,21.22
2022-07-30T02:49:18.392Z,21.43
2022-07-30T02:50:23.045Z,21.64
2022-07-30T02:51:25.728Z,21.80
2022-07-30T02:52:28.277Z,21.93
2022-07-30T02:53:30.843Z,22.04
2022-07-30T02:54:33.413Z,22.14
2022-07-30T02:55:36.080Z,22.20
2022-07-30T02:56:39.160Z,22.21
2022-07-30T02:57:43.358Z,22.22
2022-07-30T02:58:46.449Z,22.23
2022-07-30T02:59:49.111Z,22.25
2022-07-30T03:00:52.015Z,22.32
2022-07-30T03:01:54.742Z,22.34
2022-07-30T03:02:57.637Z,22.36
2022-07-30T03:04:00.317Z,22.31
2022-07-30T03:05:02.992Z,22.20
2022-07-30T03:06:05.962Z,22.11
2022-07-30T03:07:09.162Z,22.10
2022-07-30T03:08:12.018Z,22.05
2022-07-30T03:09:16.884Z,21.97
2022-07-30T03:10:20.625Z,21.87
2022-07-30T03:11:23.710Z,21.74
2022-07-30T03:12:26.326Z,21.66
2022-07-30T03:13:28.932Z,21.53
2022-07-30T03:14:31.622Z,21.35
2022-07-30T03:15:34.129Z,21.24
2022-07-30T03:16:38.817Z,21.12
2022-07-30T03:17:41.759Z,21.01
2022-07-30T03:18:44.328Z,20.93
2022-07-30T03:19:46.998Z,20.85
2022-07-30T03:20:50.036Z,20.84
2022-07-30T03:21:52.745Z,20.84
2022-07-30T03:22:55.332Z,20.83
2022-07-30T03:23:57.883Z,20.85
2022-07-30T03:25:00.555Z,20.86
2022-07-30T03:26:04.366Z,20.90
2022-07-30T03:27:06.971Z,20.90
2022-07-30T03:28:09.581Z,20.89
2022-07-30T03:29:12.264Z,20.93
2022-07-30T03:30:15.952Z,20.95
2022-07-30T03:31:18.641Z,20.91
2022-07-30T03:32:21.309Z,20.90
2022-07-30T03:33:38.028Z,20.90
2022-07-30T03:34:30.312Z,20.78
2022-07-30T03:35:32.929Z,20.65
2022-07-30T03:36:36.593Z,20.54
2022-07-30T03:37:39.236Z,20.42
2022-07-30T03:38:41.904Z,20.28
2022-07-30T03:39:44.581Z,20.14
2022-07-30T03:40:47.544Z,20.02
2022-07-30T03:41:50.174Z,19.92
2022-07-30T03:42:53.508Z,19.80
2022-07-30T03:43:56.481Z,19.69
2022-07-30T03:44:59.170Z,19.59
2022-07-30T03:46:02.112Z,19.52
2022-07-30T03:47:05.357Z,19.44
2022-07-30T03:48:08.490Z,19.38
2022-07-30T03:49:11.096Z,19.34
2022-07-30T03:50:14.948Z,19.30
2022-07-30T03:51:17.472Z,19.29
2022-07-30T03:52:20.111Z,19.26
2022-07-30T03:53:22.752Z,19.24
2022-07-30T03:54:25.328Z,19.22
2022-07-30T03:55:27.995Z,19.23
2022-07-30T03:56:30.972Z,19.25
2022-07-30T03:57:33.632Z,19.25
2022-07-30T03:58:36.276Z,19.29
2022-07-30T03:59:38.879Z,19.31
2022-07-30T04:00:41.948Z,19.35
2022-07-30T04:01:44.977Z,19.34
2022-07-30T04:02:47.619Z,19.37
2022-07-30T04:03:50.206Z,19.40
2022-07-30T04:04:52.935Z,19.47
2022-07-30T04:05:55.458Z,19.51
2022-07-30T04:06:58.443Z,19.54
2022-07-30T04:08:01.249Z,19.55
2022-07-30T04:09:03.917Z,19.57
2022-07-30T04:10:06.892Z,19.62
2022-07-30T04:11:09.459Z,19.64
2022-07-30T04:12:12.332Z,19.73
2022-07-30T04:13:14.923Z,19.82
2022-07-30T04:14:18.098Z,19.96
2022-07-30T04:16:05.895Z,20.05
2022-07-30T04:16:41.604Z,20.17
2022-07-30T04:17:30.461Z,20.30
2022-07-30T04:18:33.403Z,20.38
2022-07-30T04:19:36.035Z,20.47
2022-07-30T04:20:38.814Z,20.55
2022-07-30T04:21:42.088Z,20.66
2022-07-30T04:22:45.993Z,20.77
2022-07-30T04:24:02.261Z,20.86
2022-07-30T04:24:53.375Z,20.97
2022-07-30T04:25:55.946Z,21.08
2022-07-30T04:26:59.403Z,21.12
2022-07-30T04:28:03.717Z,21.19
2022-07-30T04:29:06.921Z,21.33
2022-07-30T04:30:10.467Z,21.46
2022-07-30T04:31:13.124Z,21.56
2022-07-30T04:32:15.874Z,21.65
2022-07-30T04:33:18.515Z,21.74
2022-07-30T04:34:21.086Z,21.83
2022-07-30T04:35:49.873Z,21.98
2022-07-30T04:36:28.372Z,22.13
2022-07-30T04:37:30.934Z,22.30
2022-07-30T04:38:33.953Z,22.43
2022-07-30T04:39:36.583Z,22.55
2022-07-30T04:40:39.390Z,22.63
2022-07-30T04:41:49.515Z,22.54
2022-07-30T04:42:46.738Z,22.46
2022-07-30T04:43:49.307Z,22.54
2022-07-30T04:44:52.183Z,22.60
2022-07-30T04:45:54.811Z,22.64
2022-07-30T04:46:58.324Z,22.72
2022-07-30T04:48:01.117Z,22.83
2022-07-30T04:49:03.811Z,22.84
2022-07-30T04:50:07.179Z,22.96
2022-07-30T04:51:09.729Z,23.13
2022-07-30T04:52:12.303Z,23.31
2022-07-30T04:53:14.821Z,23.46
2022-07-30T04:54:17.430Z,23.63
2022-07-30T04:55:19.996Z,23.75
2022-07-30T04:56:24.571Z,23.90
2022-07-30T04:57:27.187Z,24.01
2022-07-30T04:58:29.807Z,24.07
2022-07-30T04:59:32.415Z,24.23
2022-07-30T05:00:40.534Z,24.40
2022-07-30T05:01:40.392Z,24.52
2022-07-30T05:02:43.698Z,24.63
2022-07-30T05:03:46.265Z,24.80
2022-07-30T05:04:48.860Z,24.91
2022-07-30T05:05:56.791Z,24.88
2022-07-30T05:06:56.805Z,24.90
2022-07-30T05:07:59.419Z,25.07
2022-07-30T05:09:02.071Z,25.21
2022-07-30T05:10:04.842Z,25.28
2022-07-30T05:11:07.406Z,25.40
2022-07-30T05:12:09.996Z,25.58
2022-07-30T05:13:13.068Z,25.72
2022-07-30T05:14:16.137Z,25.74
2022-07-30T05:15:18.805Z,25.83
2022-07-30T05:16:22.136Z,25.94
2022-07-30T05:17:24.756Z,25.86
2022-07-30T05:18:27.322Z,25.91
2022-07-30T05:19:29.818Z,26.01
2022-07-30T05:20:33.687Z,26.14
2022-07-30T05:21:36.566Z,26.12
2022-07-30T05:22:42.891Z,26.21
2022-07-30T05:23:50.233Z,26.14
2022-07-30T05:24:49.481Z,26.28
2022-07-30T05:25:51.944Z,26.27
2022-07-30T05:26:54.921Z,26.24
2022-07-30T05:27:57.592Z,26.35
2022-07-30T05:29:00.164Z,26.49
2022-07-30T05:30:03.020Z,26.50
2022-07-30T05:31:08.659Z,26.63
2022-07-30T05:32:10.623Z,26.49
2022-07-30T05:33:15.846Z,26.52
2022-07-30T05:34:17.907Z,26.67
2022-07-30T05:35:20.430Z,26.64
2022-07-30T05:36:23.347Z,26.66
2022-07-30T05:37:25.916Z,26.79
2022-07-30T05:38:28.834Z,26.96
2022-07-30T05:39:31.566Z,26.98
2022-07-30T05:40:35.480Z,26.98
2022-07-30T05:41:38.026Z,27.11
2022-07-30T05:42:40.693Z,27.25
2022-07-30T05:43:43.475Z,27.32
2022-07-30T05:44:46.032Z,27.44
2022-07-30T05:45:48.602Z,27.51
2022-07-30T05:46:51.480Z,27.62
2022-07-30T05:47:54.070Z,27.65
2022-07-30T05:48:56.964Z,27.75
2022-07-30T05:50:04.608Z,27.71
2022-07-30T05:51:04.242Z,27.61
2022-07-30T05:52:06.828Z,27.66
2022-07-30T05:53:09.356Z,27.78
2022-07-30T05:54:11.899Z,27.85
2022-07-30T05:55:14.424Z,27.95
2022-07-30T05:56:17.657Z,28.07
2022-07-30T05:57:20.320Z,28.11
2022-07-30T05:58:22.989Z,27.98
2022-07-30T05:59:25.667Z,27.99
2022-07-30T06:00:30.094Z,28.03
2022-07-30T06:01:32.799Z,28.09
2022-07-30T06:02:35.507Z,28.03
2022-07-30T06:03:38.072Z,28.12
2022-07-30T06:04:40.641Z,28.21
2022-07-30T06:05:45.056Z,28.34
2022-07-30T06:06:48.031Z,28.48
2022-07-30T06:07:50.821Z,28.58
2022-07-30T06:08:53.496Z,28.59
2022-07-30T06:09:56.043Z,28.55
2022-07-30T06:10:59.017Z,28.45
2022-07-30T06:12:01.679Z,28.39
2022-07-30T06:13:04.250Z,28.49
2022-07-30T06:14:06.725Z,28.69
2022-07-30T06:15:09.276Z,28.76
2022-07-30T06:16:12.767Z,28.87
2022-07-30T06:17:15.638Z,29.04
2022-07-30T06:18:18.265Z,29.23
2022-07-30T06:19:20.877Z,29.31
2022-07-30T06:20:25.183Z,29.37
2022-07-30T06:21:27.756Z,29.38
2022-07-30T06:22:30.239Z,29.40
2022-07-30T06:23:33.194Z,29.45
2022-07-30T06:24:35.882Z,29.58
2022-07-30T06:25:39.287Z,29.67
2022-07-30T06:26:43.359Z,29.80
2022-07-30T06:27:45.978Z,29.93
2022-07-30T06:28:48.583Z,30.02
2022-07-30T06:29:51.327Z,30.07
2022-07-30T06:30:54.398Z,30.11
2022-07-30T06:31:57.014Z,30.16
2022-07-30T06:33:00.191Z,30.17
2022-07-30T06:34:02.856Z,30.16
2022-07-30T06:35:05.528Z,30.05
2022-07-30T06:36:08.567Z,30.06
2022-07-30T06:37:13.114Z,30.15
2022-07-30T06:38:15.782Z,30.24
2022-07-30T06:39:56.282Z,30.38
2022-07-30T06:40:24.603Z,30.48
2022-07-30T06:41:27.805Z,30.60
2022-07-30T06:42:30.760Z,30.74
2022-07-30T06:43:33.741Z,30.89
2022-07-30T06:44:36.369Z,30.99
2022-07-30T06:45:38.990Z,31.06
2022-07-30T06:46:42.128Z,31.11
2022-07-30T06:47:45.955Z,31.11
2022-07-30T06:48:48.687Z,31.18
2022-07-30T06:49:51.596Z,30.98
2022-07-30T06:50:54.271Z,30.98
2022-07-30T06:51:56.944Z,31.02
2022-07-30T06:52:59.647Z,31.12
2022-07-30T06:54:02.233Z,31.20
2022-07-30T06:55:04.839Z,31.28
2022-07-30T06:56:07.939Z,31.38
2022-07-30T06:57:10.588Z,31.50
2022-07-30T06:58:13.114Z,31.61
2022-07-30T06:59:15.637Z,31.66
2022-07-30T07:00:19.212Z,31.74
2022-07-30T07:01:21.865Z,31.83
2022-07-30T07:02:24.960Z,31.94
2022-07-30T07:03:39.884Z,31.97
2022-07-30T07:04:32.465Z,31.84
2022-07-30T07:05:35.527Z,31.62
2022-07-30T07:06:38.607Z,31.45
2022-07-30T07:07:44.539Z,31.54
2022-07-30T07:08:45.793Z,31.66
2022-07-30T07:09:48.482Z,31.53
2022-07-30T07:10:52.253Z,31.05
2022-07-30T07:11:54.822Z,30.77
2022-07-30T07:12:57.389Z,31.05
2022-07-30T07:14:04.394Z,31.19
2022-07-30T07:15:04.425Z,30.98
2022-07-30T07:16:07.854Z,30.94
2022-07-30T07:17:10.553Z,30.77
2022-07-30T07:18:13.458Z,30.85
2022-07-30T07:19:16.064Z,30.88
2022-07-30T07:20:21.496Z,30.91
2022-07-30T07:21:25.908Z,31.04
2022-07-30T07:22:28.581Z,31.14
2022-07-30T07:23:39.747Z,30.84
2022-07-30T07:24:35.661Z,30.56
2022-07-30T07:25:38.323Z,30.47
2022-07-30T07:26:41.299Z,30.54
2022-07-30T07:27:43.832Z,30.78
2022-07-30T07:28:48.280Z,30.80
2022-07-30T07:30:01.684Z,30.56
2022-07-30T07:30:55.373Z,30.05
2022-07-30T07:32:06.962Z,29.96
2022-07-30T07:33:02.394Z,30.12
2022-07-30T07:34:05.006Z,30.46
2022-07-30T07:35:07.612Z,30.77
2022-07-30T07:36:11.062Z,30.68
2022-07-30T07:37:13.734Z,30.79
2022-07-30T07:38:16.382Z,30.85
2022-07-30T07:39:18.939Z,30.93
2022-07-30T07:40:22.166Z,31.22
2022-07-30T07:41:26.666Z,31.53
2022-07-30T07:42:29.329Z,31.63
2022-07-30T07:43:32.309Z,31.62
2022-07-30T07:44:34.829Z,31.56
2022-07-30T07:45:37.548Z,31.85
2022-07-30T07:46:40.427Z,32.06
2022-07-30T07:47:43.093Z,31.95
2022-07-30T07:48:47.561Z,32.15
2022-07-30T07:49:50.478Z,32.49
2022-07-30T07:50:55.953Z,32.83
2022-07-30T07:51:57.979Z,33.15
2022-07-30T07:53:00.537Z,33.25
2022-07-30T07:54:20.523Z,33.22
2022-07-30T07:55:07.708Z,33.10
2022-07-30T07:56:11.857Z,32.89
2022-07-30T07:57:15.915Z,32.81
2022-07-30T07:58:25.334Z,32.88
2022-07-30T07:59:22.958Z,32.99
2022-07-30T08:00:27.328Z,33.08
2022-07-30T08:01:30.330Z,33.06
2022-07-30T08:02:33.594Z,32.92
2022-07-30T08:03:36.229Z,32.55
2022-07-30T08:04:38.904Z,32.67
2022-07-30T08:06:01.747Z,32.73
2022-07-30T08:06:46.289Z,32.86
2022-07-30T08:07:48.877Z,32.69
2022-07-30T08:08:51.826Z,32.52
2022-07-30T08:09:54.398Z,32.48
2022-07-30T08:10:57.022Z,32.80
2022-07-30T08:11:59.658Z,33.02
2022-07-30T08:13:03.019Z,33.30
2022-07-30T08:14:05.692Z,33.40
2022-07-30T08:15:08.270Z,33.40
2022-07-30T08:16:11.641Z,33.36
2022-07-30T08:17:15.652Z,33.06
2022-07-30T08:18:18.513Z,32.61
2022-07-30T08:19:21.079Z,32.61
2022-07-30T08:20:25.396Z,32.45
2022-07-30T08:21:28.467Z,32.17
2022-07-30T08:22:31.245Z,32.07
2022-07-30T08:23:33.912Z,31.97
2022-07-30T08:24:36.479Z,31.89
2022-07-30T08:25:39.083Z,31.88
2022-07-30T08:26:43.148Z,31.99
2022-07-30T08:27:46.432Z,31.96
2022-07-30T08:28:49.200Z,31.36
2022-07-30T08:29:53.466Z,31.59
2022-07-30T08:30:59.136Z,31.70
2022-07-30T08:32:01.097Z,31.59
2022-07-30T08:33:04.179Z,31.45
2022-07-30T08:34:07.722Z,31.50
2022-07-30T08:35:10.294Z,31.66
2022-07-30T08:36:13.376Z,31.93
2022-07-30T08:37:15.980Z,31.86
2022-07-30T08:38:18.489Z,32.05
2022-07-30T08:39:21.426Z,32.48
2022-07-30T08:40:24.414Z,32.89
2022-07-30T08:41:27.339Z,33.22
2022-07-30T08:42:30.354Z,33.42
2022-07-30T08:43:33.329Z,33.81
2022-07-30T08:44:36.002Z,34.26
2022-07-30T08:45:38.568Z,34.34
2022-07-30T08:46:42.510Z,34.55
2022-07-30T08:47:47.035Z,35.00
2022-07-30T08:49:52.225Z,35.79
2022-07-30T08:50:55.393Z,35.94
2022-07-30T08:51:57.978Z,35.99
2022-07-30T08:53:00.632Z,35.83
2022-07-30T08:54:03.197Z,35.57
2022-07-30T08:55:05.719Z,35.45
2022-07-30T08:56:08.735Z,35.16
2022-07-30T08:57:11.274Z,34.87
2022-07-30T08:58:13.871Z,34.96
2022-07-30T08:59:18.382Z,35.20
2022-07-30T09:00:21.974Z,35.43
2022-07-30T09:01:24.543Z,35.77
2022-07-30T09:02:29.293Z,35.97
2022-07-30T09:03:31.940Z,36.13
2022-07-30T09:04:34.801Z,36.20
2022-07-30T09:05:37.367Z,36.23
2022-07-30T09:06:40.343Z,36.04
2022-07-30T09:07:42.940Z,35.39
2022-07-30T09:08:45.578Z,34.63
2022-07-30T09:09:48.247Z,33.92
2022-07-30T09:10:53.350Z,33.72
2022-07-30T09:11:55.637Z,33.15
2022-07-30T09:12:58.312Z,32.78
2022-07-30T09:14:00.872Z,32.67
2022-07-30T09:15:03.908Z,32.56
2022-07-30T09:16:06.796Z,32.41
2022-07-30T09:17:09.495Z,32.31
2022-07-30T09:18:12.066Z,32.05
2022-07-30T09:19:14.547Z,31.83
2022-07-30T09:20:17.925Z,31.62
2022-07-30T09:21:21.090Z,31.38
2022-07-30T09:22:24.027Z,31.11
2022-07-30T09:23:26.735Z,30.92
2022-07-30T09:24:29.352Z,30.84
2022-07-30T09:25:32.280Z,30.86
2022-07-30T09:26:35.676Z,31.02
2022-07-30T09:27:38.340Z,31.24
2022-07-30T09:28:41.005Z,31.45
2022-07-30T09:29:43.577Z,31.62
2022-07-30T09:30:46.309Z,31.85
2022-07-30T09:31:49.026Z,32.11
2022-07-30T09:32:51.581Z,32.43
2022-07-30T09:33:54.107Z,32.79
2022-07-30T09:34:57.127Z,33.14
2022-07-30T09:35:59.692Z,33.49
2022-07-30T09:37:02.668Z,33.69
2022-07-30T09:38:06.653Z,33.47
2022-07-30T09:39:09.547Z,33.53
2022-07-30T09:40:12.785Z,33.79
2022-07-30T09:41:36.330Z,33.79
2022-07-30T09:42:20.315Z,33.73
2022-07-30T09:43:27.462Z,33.66
2022-07-30T09:44:27.399Z,33.53
2022-07-30T09:45:35.078Z,33.40
2022-07-30T09:46:36.217Z,33.08
2022-07-30T09:47:38.789Z,32.92
2022-07-30T09:48:41.405Z,32.52
2022-07-30T09:49:44.021Z,32.33
2022-07-30T09:50:50.150Z,31.85
2022-07-30T09:51:54.773Z,31.58
2022-07-30T09:52:57.383Z,31.25
2022-07-30T09:54:00.335Z,30.88
2022-07-30T09:55:03.577Z,30.76
2022-07-30T09:56:06.895Z,30.47
2022-07-30T09:57:15.918Z,30.02
2022-07-30T09:58:21.623Z,29.74
2022-07-30T09:59:19.656Z,29.25
2022-07-30T10:00:24.381Z,28.93
2022-07-30T10:01:49.882Z,28.78
2022-07-30T10:02:32.527Z,28.70
2022-07-30T10:03:41.978Z,28.60
2022-07-30T10:04:40.509Z,28.88
2022-07-30T10:05:43.304Z,29.30
2022-07-30T10:06:46.651Z,29.70
2022-07-30T10:07:51.479Z,30.15
2022-07-30T10:08:55.547Z,30.60
2022-07-30T10:09:58.294Z,30.92
2022-07-30T10:11:05.141Z,31.36
2022-07-30T10:12:10.716Z,31.83
2022-07-30T10:13:10.856Z,32.31
2022-07-30T10:14:15.419Z,32.66
2022-07-30T10:15:17.980Z,32.94
2022-07-30T10:16:23.809Z,33.09
2022-07-30T10:17:26.813Z,33.08
2022-07-30T10:18:31.220Z,32.87
2022-07-30T10:19:39.899Z,32.42
2022-07-30T10:20:38.800Z,32.09
2022-07-30T10:21:44.264Z,31.85
2022-07-30T10:22:47.684Z,31.61
2022-07-30T10:23:51.311Z,31.52
2022-07-30T10:24:53.879Z,30.99
2022-07-30T10:25:56.855Z,30.51
2022-07-30T10:26:59.933Z,30.45
2022-07-30T10:28:03.333Z,30.25
2022-07-30T10:29:05.990Z,30.51
2022-07-30T10:30:13.835Z,30.94
2022-07-30T10:31:48.412Z,31.32
2022-07-30T10:32:19.740Z,31.61
2022-07-30T10:33:36.280Z,31.94
2022-07-30T10:34:32.559Z,32.35
2022-07-30T10:35:38.100Z,32.80
2022-07-30T10:36:38.091Z,33.23
2022-07-30T10:37:40.675Z,33.60
2022-07-30T10:38:43.532Z,33.80
2022-07-30T10:39:47.430Z,34.13
2022-07-30T10:40:50.461Z,34.47
2022-07-30T10:41:54.713Z,34.76
2022-07-30T10:42:57.585Z,34.85
2022-07-30T10:44:00.256Z,34.83
2022-07-30T10:45:02.826Z,34.76
2022-07-30T10:46:09.287Z,34.88
2022-07-30T10:47:12.218Z,35.08
2022-07-30T10:48:15.155Z,34.66
2022-07-30T10:49:19.146Z,34.83
2022-07-30T10:50:23.131Z,35.17
2022-07-30T10:51:34.449Z,34.09
2022-07-30T10:52:30.212Z,33.69
2022-07-30T10:53:32.762Z,33.42
2022-07-30T10:54:39.251Z,33.14
2022-07-30T10:55:39.757Z,32.94
2022-07-30T10:56:42.692Z,32.31
2022-07-30T10:57:47.247Z,31.75
2022-07-30T10:58:49.817Z,31.18
2022-07-30T10:59:54.328Z,30.63
2022-07-30T11:00:57.773Z,30.04
2022-07-30T11:02:00.821Z,29.84
2022-07-30T11:03:11.808Z,29.75
2022-07-30T11:04:10.022Z,29.50
2022-07-30T11:05:13.206Z,29.45
2022-07-30T11:06:24.034Z,29.42
2022-07-30T11:07:23.457Z,29.26
2022-07-30T11:08:26.427Z,29.18
2022-07-30T11:09:30.795Z,28.54
2022-07-30T11:10:35.859Z,28.53
2022-07-30T11:12:01.921Z,28.58
2022-07-30T11:12:44.108Z,28.60
2022-07-30T11:13:47.564Z,28.33
2022-07-30T11:14:51.457Z,28.45
2022-07-30T11:15:54.086Z,28.58
2022-07-30T11:16:56.805Z,28.61
2022-07-30T11:17:59.826Z,28.30
2022-07-30T11:19:27.299Z,28.15
2022-07-30T11:20:07.476Z,28.17
2022-07-30T11:21:13.576Z,28.08
2022-07-30T11:22:16.284Z,28.19
2022-07-30T11:23:19.290Z,28.27
2022-07-30T11:24:22.282Z,28.31
2022-07-30T11:25:25.212Z,28.35
2022-07-30T11:26:30.958Z,28.64
2022-07-30T11:27:36.072Z,28.97
2022-07-30T11:28:38.795Z,29.36
2022-07-30T11:29:51.220Z,29.84
2022-07-30T11:30:46.137Z,30.28
2022-07-30T11:31:56.639Z,30.42
2022-07-30T11:32:56.214Z,30.78
2022-07-30T11:33:59.472Z,31.32
2022-07-30T11:35:03.372Z,31.83
2022-07-30T11:36:06.962Z,32.29
2022-07-30T11:37:18.640Z,32.72
2022-07-30T11:38:14.101Z,33.15
2022-07-30T11:39:16.830Z,33.44
2022-07-30T11:40:25.903Z,33.72
2022-07-30T11:41:24.815Z,33.97
2022-07-30T11:42:27.483Z,34.39
2022-07-30T11:43:35.626Z,34.82
2022-07-30T11:44:35.377Z,34.98
2022-07-30T11:45:37.944Z,35.05
2022-07-30T11:46:41.333Z,35.04
2022-07-30T11:47:44.923Z,35.14
2022-07-30T11:48:47.614Z,35.08
2022-07-30T11:49:50.572Z,35.21
2022-07-30T11:50:54.175Z,35.22
2022-07-30T11:51:57.135Z,35.30
2022-07-30T11:52:59.708Z,35.42
2022-07-30T11:54:02.376Z,35.55
2022-07-30T11:55:05.758Z,35.74
2022-07-30T11:56:09.348Z,35.51
2022-07-30T11:57:13.760Z,35.67
2022-07-30T11:58:16.326Z,35.66
2022-07-30T11:59:18.891Z,35.79
2022-07-30T12:00:22.792Z,36.00
2022-07-30T12:01:27.202Z,36.34
2022-07-30T12:02:29.975Z,36.67
2022-07-30T12:03:32.501Z,36.86
2022-07-30T12:04:35.108Z,37.02
2022-07-30T12:05:38.016Z,37.29
2022-07-30T12:06:40.815Z,37.48
2022-07-30T12:07:43.586Z,37.59
2022-07-30T12:08:46.192Z,37.79
2022-07-30T12:09:48.682Z,37.86
2022-07-30T12:10:51.657Z,37.88
2022-07-30T12:11:54.206Z,37.99
2022-07-30T12:12:56.868Z,37.79
2022-07-30T12:13:59.419Z,36.81
2022-07-30T12:15:02.245Z,36.57
2022-07-30T12:16:04.980Z,36.52
2022-07-30T12:17:15.088Z,36.38
2022-07-30T12:18:25.712Z,36.40
2022-07-30T12:19:16.468Z,35.92
2022-07-30T12:20:20.776Z,35.54
2022-07-30T12:21:23.375Z,34.51
2022-07-30T12:22:26.320Z,34.32
2022-07-30T12:23:28.915Z,34.23
2022-07-30T12:24:31.863Z,33.90
2022-07-30T12:25:34.427Z,33.68
2022-07-30T12:26:37.203Z,32.84
2022-07-30T12:27:39.936Z,32.02
2022-07-30T12:28:42.544Z,31.54
2022-07-30T12:29:45.220Z,30.92
2022-07-30T12:30:48.200Z,30.46
2022-07-30T12:31:50.856Z,30.61
2022-07-30T12:32:53.632Z,30.50
2022-07-30T12:33:58.913Z,30.43
2022-07-30T12:35:00.707Z,30.47
2022-07-30T12:36:03.689Z,30.41
2022-07-30T12:37:06.252Z,30.44
2022-07-30T12:38:08.830Z,30.45
2022-07-30T12:39:11.489Z,30.51
2022-07-30T12:40:15.268Z,30.56
2022-07-30T12:41:18.261Z,30.54
2022-07-30T12:42:20.829Z,30.50
2022-07-30T12:43:23.623Z,30.48
2022-07-30T12:44:26.169Z,30.30
2022-07-30T12:45:28.743Z,29.99
2022-07-30T12:46:33.250Z,30.04
2022-07-30T12:47:35.813Z,30.06
2022-07-30T12:48:38.540Z,30.07
2022-07-30T12:49:49.408Z,30.12
2022-07-30T12:50:46.070Z,30.04
2022-07-30T12:51:48.636Z,30.09
2022-07-30T12:52:51.204Z,30.19
2022-07-30T12:53:53.739Z,30.24
2022-07-30T12:54:56.230Z,30.30
2022-07-30T12:55:58.808Z,30.02
2022-07-30T12:57:02.206Z,30.05
2022-07-30T12:58:08.444Z,30.08
2022-07-30T12:59:09.995Z,30.13
2022-07-30T13:00:14.496Z,30.15
2022-07-30T13:01:17.342Z,30.17
2022-07-30T13:02:20.247Z,30.20
2022-07-30T13:03:24.813Z,30.22
2022-07-30T13:04:27.527Z,30.18
2022-07-30T13:05:30.097Z,30.09
2022-07-30T13:06:33.620Z,30.05
2022-07-30T13:07:36.167Z,30.00
2022-07-30T13:08:38.722Z,29.87
2022-07-30T13:09:41.383Z,29.90
2022-07-30T13:10:44.373Z,29.95
2022-07-30T13:11:48.993Z,29.94
2022-07-30T13:12:51.543Z,30.05
2022-07-30T13:13:54.116Z,30.18
2022-07-30T13:14:56.597Z,30.39
2022-07-30T13:15:59.143Z,30.64
2022-07-30T13:17:02.363Z,30.85
2022-07-30T13:18:06.763Z,31.04
2022-07-30T13:19:09.309Z,31.22
2022-07-30T13:20:13.816Z,31.41
2022-07-30T13:21:16.594Z,31.57
2022-07-30T13:22:19.769Z,31.71
2022-07-30T13:23:22.540Z,31.72
2022-07-30T13:24:25.208Z,31.65
2022-07-30T13:25:27.771Z,31.61
2022-07-30T13:26:32.593Z,31.48
2022-07-30T13:27:35.162Z,31.38
2022-07-30T13:28:38.243Z,31.46
2022-07-30T13:29:41.009Z,31.28
2022-07-30T13:30:43.781Z,31.22
2022-07-30T13:31:46.352Z,31.31
2022-07-30T13:32:49.023Z,31.43
2022-07-30T13:33:51.715Z,31.50